Time;durP1;ratioP1;P1;durP2;ratioP2;P2;SDS_P1;SDS_P2;PMS_P1;PMS_P2;Temp;Humidity;BMP_temperature;BMP_pressure;BME280_temperature;BME280_humidity;BME280_pressure;Samples;Min_cycle;Max_cycle;Signal;HPM_P1;HPM_P2
2023/12/21 00:00:15;;;;;;;0.60;0.60;;;15.70;68.90;;;;;;4991054;28;20046;-85
2023/12/21 00:02:41;;;;;;;1.65;0.63;;;15.70;68.80;;;;;;4975287;28;20056;-84
2023/12/21 00:05:06;;;;;;;0.98;0.50;;;15.70;68.90;;;;;;4995524;28;20073;-85
2023/12/21 00:07:32;;;;;;;0.70;0.60;;;15.70;68.80;;;;;;4981637;28;20042;-84
2023/12/21 00:09:58;;;;;;;1.27;0.75;;;15.60;68.90;;;;;;5000847;28;20052;-91
2023/12/21 00:12:24;;;;;;;0.52;0.52;;;15.60;69.00;;;;;;4993700;28;20530;-92
2023/12/21 00:14:49;;;;;;;1.02;0.47;;;15.60;68.80;;;;;;4981466;28;20500;-92
2023/12/21 00:17:15;;;;;;;0.82;0.80;;;15.60;68.90;;;;;;5008099;28;20064;-90
2023/12/21 00:19:40;;;;;;;0.75;0.68;;;15.60;69.00;;;;;;4998627;28;20512;-92
2023/12/21 00:22:06;;;;;;;1.00;0.82;;;15.60;68.90;;;;;;4982614;28;20046;-84
2023/12/21 00:24:32;;;;;;;0.70;0.70;;;15.60;69.20;;;;;;4995257;28;20077;-85
2023/12/21 00:26:58;;;;;;;1.95;0.60;;;15.50;69.00;;;;;;4999713;28;20038;-84
2023/12/21 00:29:23;;;;;;;1.20;0.73;;;15.60;69.00;;;;;;4987950;28;20038;-81
2023/12/21 00:31:49;;;;;;;0.85;0.70;;;15.50;69.00;;;;;;4976021;28;20136;-82
2023/12/21 00:34:14;;;;;;;0.70;0.70;;;15.60;69.00;;;;;;4966620;28;20672;-81
2023/12/21 00:36:40;;;;;;;1.63;0.80;;;15.50;69.00;;;;;;4963484;28;20070;-82
2023/12/21 00:39:06;;;;;;;0.75;0.50;;;15.50;69.00;;;;;;4979775;28;20558;-81
2023/12/21 00:41:32;;;;;;;1.10;0.60;;;15.50;69.10;;;;;;5011895;28;21038;-81
2023/12/21 00:43:57;;;;;;;0.68;0.60;;;15.50;69.20;;;;;;5010764;28;20407;-81
2023/12/21 00:46:23;;;;;;;1.83;0.68;;;15.50;69.20;;;;;;4975739;28;20049;-81
2023/12/21 00:48:48;;;;;;;0.63;0.63;;;15.50;69.30;;;;;;4953146;28;20039;-81
2023/12/21 00:51:14;;;;;;;0.80;0.70;;;15.50;69.40;;;;;;4993062;28;20052;-81
2023/12/21 00:53:39;;;;;;;1.10;0.60;;;15.50;69.40;;;;;;4992792;28;20037;-81
2023/12/21 00:56:05;;;;;;;0.75;0.60;;;15.50;69.40;;;;;;4993488;28;20508;-81
2023/12/21 00:58:31;;;;;;;1.05;0.70;;;15.50;69.40;;;;;;4979547;28;20079;-81
2023/12/21 01:00:56;;;;;;;0.57;0.57;;;15.40;70.20;;;;;;4972174;28;20587;-81
2023/12/21 01:03:22;;;;;;;0.80;0.70;;;15.40;69.40;;;;;;4973784;28;20033;-81
2023/12/21 01:05:47;;;;;;;0.73;0.73;;;15.40;70.30;;;;;;4991429;28;20134;-81
2023/12/21 01:08:13;;;;;;;0.90;0.60;;;15.40;69.40;;;;;;4991757;28;20405;-81
2023/12/21 01:10:38;;;;;;;1.00;0.63;;;15.40;69.50;;;;;;4993556;28;20046;-81
2023/12/21 01:13:06;;;;;;;0.55;0.45;;;15.40;69.50;;;;;;4990690;28;20051;-81
2023/12/21 01:15:31;;;;;;;0.47;0.47;;;15.40;69.50;;;;;;5010792;28;20077;-81
2023/12/21 01:17:57;;;;;;;0.68;0.65;;;15.40;69.50;;;;;;4981843;28;20073;-81
2023/12/21 01:20:22;;;;;;;0.88;0.57;;;15.40;69.60;;;;;;4975560;28;20057;-82
2023/12/21 01:22:48;;;;;;;1.48;0.80;;;15.40;70.40;;;;;;4981512;28;20043;-83
2023/12/21 01:25:14;;;;;;;1.40;0.85;;;15.40;69.70;;;;;;4967700;28;20038;-82
2023/12/21 01:27:39;;;;;;;1.20;0.57;;;15.40;69.70;;;;;;4993877;28;20468;-82
2023/12/21 01:30:06;;;;;;;0.52;0.40;;;15.40;69.70;;;;;;5003693;28;20066;-83
2023/12/21 01:32:31;;;;;;;0.65;0.40;;;15.40;69.70;;;;;;4974114;28;20475;-81
2023/12/21 01:34:57;;;;;;;1.02;0.63;;;15.40;70.50;;;;;;4988002;28;20038;-81
2023/12/21 01:37:22;;;;;;;0.63;0.60;;;15.30;69.70;;;;;;4968930;28;20061;-81
2023/12/21 01:39:48;;;;;;;1.20;0.60;;;15.30;69.70;;;;;;5016435;28;20034;-81
2023/12/21 01:42:13;;;;;;;0.60;0.45;;;15.30;69.80;;;;;;4989616;28;20464;-81
2023/12/21 01:44:39;;;;;;;2.60;0.57;;;15.30;69.80;;;;;;4976621;28;20502;-81
2023/12/21 01:47:05;;;;;;;0.80;0.60;;;15.30;69.80;;;;;;4980912;28;20125;-81
2023/12/21 01:49:31;;;;;;;1.05;0.60;;;15.30;69.90;;;;;;4972836;28;20073;-81
2023/12/21 01:51:57;;;;;;;1.05;0.50;;;15.30;69.80;;;;;;4989345;28;20038;-81
2023/12/21 01:54:22;;;;;;;0.75;0.57;;;15.30;69.80;;;;;;4983483;28;20046;-81
2023/12/21 01:56:48;;;;;;;0.77;0.50;;;15.30;69.90;;;;;;4984692;28;20066;-81
2023/12/21 01:59:14;;;;;;;0.82;0.50;;;15.30;69.80;;;;;;4992332;28;20038;-81
2023/12/21 02:01:39;;;;;;;1.17;0.80;;;15.30;70.00;;;;;;4975768;28;20042;-81
2023/12/21 02:04:05;;;;;;;1.10;0.65;;;15.30;69.90;;;;;;4968875;28;20041;-81
2023/12/21 02:06:31;;;;;;;0.80;0.63;;;15.30;69.90;;;;;;4989494;28;20054;-83
2023/12/21 02:08:56;;;;;;;0.75;0.50;;;15.30;70.00;;;;;;5009442;28;20040;-83
2023/12/21 02:11:22;;;;;;;0.75;0.50;;;15.30;70.00;;;;;;4963083;28;20037;-83
2023/12/21 02:13:47;;;;;;;0.63;0.60;;;15.20;70.00;;;;;;4977047;28;20041;-83
2023/12/21 02:16:16;;;;;;;0.80;0.70;;;15.30;69.90;;;;;;4978788;28;20412;-83
2023/12/21 02:18:42;;;;;;;1.13;0.77;;;15.30;70.00;;;;;;4975761;28;20054;-83
2023/12/21 02:21:08;;;;;;;0.50;0.40;;;15.20;70.00;;;;;;4975956;28;20447;-82
2023/12/21 02:23:36;;;;;;;0.30;0.30;;;15.20;70.00;;;;;;4982241;28;20092;-83
2023/12/21 02:26:01;;;;;;;0.60;0.60;;;15.20;70.00;;;;;;4990785;28;20038;-82
2023/12/21 02:28:27;;;;;;;0.75;0.50;;;15.20;70.80;;;;;;4977278;28;20050;-82
2023/12/21 02:30:52;;;;;;;0.88;0.50;;;15.20;69.90;;;;;;4994347;28;20459;-82
2023/12/21 02:33:18;;;;;;;1.27;0.50;;;15.20;70.10;;;;;;4983327;28;20050;-82
2023/12/21 02:35:43;;;;;;;0.60;0.40;;;15.20;70.00;;;;;;4983582;28;20038;-82
2023/12/21 02:38:09;;;;;;;1.10;0.50;;;15.20;70.10;;;;;;4981640;28;20511;-82
2023/12/21 02:40:35;;;;;;;0.85;0.60;;;15.20;70.10;;;;;;4965341;28;20049;-82
2023/12/21 02:43:00;;;;;;;0.47;0.47;;;15.20;70.10;;;;;;4989940;28;20160;-82
2023/12/21 02:45:26;;;;;;;0.77;0.43;;;15.20;70.10;;;;;;4994406;28;20100;-82
2023/12/21 02:47:51;;;;;;;1.90;0.70;;;15.20;70.10;;;;;;4982015;28;20048;-82
2023/12/21 02:50:17;;;;;;;0.40;0.40;;;15.20;70.10;;;;;;4991483;28;20049;-82
2023/12/21 02:52:43;;;;;;;0.63;0.57;;;15.20;70.10;;;;;;4985161;28;20062;-82
2023/12/21 02:55:08;;;;;;;0.93;0.50;;;15.20;70.30;;;;;;4976395;28;20092;-82
2023/12/21 02:57:34;;;;;;;0.50;0.32;;;15.20;70.20;;;;;;4987748;28;20037;-82
2023/12/21 02:59:59;;;;;;;0.68;0.50;;;15.20;70.30;;;;;;4983454;28;20042;-82
2023/12/21 03:02:25;;;;;;;0.70;0.60;;;15.20;70.30;;;;;;4991174;28;20042;-82
2023/12/21 03:04:51;;;;;;;0.60;0.30;;;15.20;70.30;;;;;;4985618;28;20092;-82
2023/12/21 03:07:16;;;;;;;0.43;0.40;;;15.20;70.30;;;;;;4986394;28;20046;-82
2023/12/21 03:09:42;;;;;;;0.50;0.40;;;15.10;70.20;;;;;;5011152;28;20712;-82
2023/12/21 03:12:07;;;;;;;0.70;0.35;;;15.10;70.30;;;;;;4991753;28;20061;-82
2023/12/21 03:14:33;;;;;;;0.88;0.60;;;15.20;70.50;;;;;;4980159;28;20547;-82
2023/12/21 03:16:59;;;;;;;0.40;0.40;;;15.10;70.30;;;;;;4993408;28;20047;-82
2023/12/21 03:19:24;;;;;;;0.30;0.30;;;15.20;70.50;;;;;;4994385;28;20125;-82
2023/12/21 03:21:50;;;;;;;0.80;0.57;;;15.10;70.40;;;;;;5010279;28;20782;-82
2023/12/21 03:24:15;;;;;;;0.60;0.50;;;15.10;70.50;;;;;;5008265;28;20062;-82
2023/12/21 03:26:43;;;;;;;0.57;0.55;;;15.20;70.60;;;;;;4983773;28;20053;-82
2023/12/21 03:29:08;;;;;;;0.75;0.40;;;15.10;70.50;;;;;;4986825;28;20045;-82
2023/12/21 03:31:34;;;;;;;0.52;0.43;;;15.10;70.60;;;;;;4975851;28;20037;-81
2023/12/21 03:33:59;;;;;;;0.63;0.40;;;15.10;70.70;;;;;;4975893;28;20130;-82
2023/12/21 03:36:27;;;;;;;0.60;0.35;;;15.10;70.60;;;;;;4993471;28;20169;-81
2023/12/21 03:38:52;;;;;;;0.50;0.50;;;15.10;70.60;;;;;;4990450;28;20538;-81
2023/12/21 03:41:18;;;;;;;0.40;0.30;;;15.10;70.70;;;;;;4997429;28;20050;-82
2023/12/21 03:43:43;;;;;;;0.60;0.40;;;15.10;70.60;;;;;;4981153;28;20503;-81
2023/12/21 03:46:09;;;;;;;0.50;0.50;;;15.10;70.60;;;;;;4993608;28;20050;-81
2023/12/21 03:48:35;;;;;;;0.50;0.50;;;15.10;70.70;;;;;;4976424;28;20057;-81
2023/12/21 03:51:00;;;;;;;1.05;0.50;;;15.10;70.60;;;;;;4968823;28;20076;-81
2023/12/21 03:53:26;;;;;;;0.57;0.40;;;15.10;70.60;;;;;;4958142;28;20544;-81
2023/12/21 03:55:51;;;;;;;0.70;0.50;;;15.10;70.70;;;;;;4952167;28;20039;-80
2023/12/21 03:58:17;;;;;;;0.40;0.38;;;15.10;70.70;;;;;;4980331;28;20059;-81
2023/12/21 04:00:43;;;;;;;0.40;0.38;;;15.10;70.70;;;;;;4944505;28;20489;-81
2023/12/21 04:03:08;;;;;;;0.40;0.40;;;15.10;70.70;;;;;;4979062;28;20125;-81
2023/12/21 04:05:34;;;;;;;0.30;0.30;;;15.10;71.50;;;;;;4961108;28;20047;-81
2023/12/21 04:07:59;;;;;;;0.70;0.30;;;15.10;70.70;;;;;;4963936;28;20501;-81
2023/12/21 04:10:25;;;;;;;1.00;0.47;;;15.10;71.50;;;;;;4969898;28;20456;-81
2023/12/21 04:12:51;;;;;;;0.90;0.30;;;15.20;70.70;;;;;;4935573;28;20131;-81
2023/12/21 04:15:16;;;;;;;0.30;0.30;;;15.10;70.70;;;;;;4967430;28;20045;-80
2023/12/21 04:17:42;;;;;;;0.57;0.43;;;15.10;70.80;;;;;;4953080;28;20512;-81
2023/12/21 04:20:09;;;;;;;0.43;0.30;;;15.00;70.80;;;;;;4975904;28;21029;-81
2023/12/21 04:22:34;;;;;;;0.85;0.43;;;15.10;71.00;;;;;;4974634;28;20139;-82
2023/12/21 04:25:00;;;;;;;0.60;0.43;;;15.00;70.90;;;;;;4960087;28;20042;-82
2023/12/21 04:27:26;;;;;;;0.43;0.28;;;15.10;71.10;;;;;;4952900;28;20046;-82
2023/12/21 04:29:52;;;;;;;0.30;0.30;;;15.00;71.00;;;;;;4962729;28;20089;-80
2023/12/21 04:32:17;;;;;;;0.40;0.30;;;15.00;71.10;;;;;;4972150;28;20402;-82
2023/12/21 04:34:43;;;;;;;0.25;0.22;;;15.10;71.00;;;;;;4951402;28;20049;-81
2023/12/21 04:37:08;;;;;;;0.60;0.20;;;15.00;70.90;;;;;;4966999;28;20045;-81
2023/12/21 04:39:34;;;;;;;0.20;0.20;;;15.00;71.10;;;;;;4968261;28;20065;-80
2023/12/21 04:42:00;;;;;;;0.38;0.38;;;15.10;71.10;;;;;;4958916;28;20042;-82
2023/12/21 04:44:26;;;;;;;0.40;0.30;;;15.10;71.10;;;;;;4972255;28;20050;-81
2023/12/21 04:46:51;;;;;;;0.30;0.30;;;15.10;71.10;;;;;;4994164;28;20133;-82
2023/12/21 04:49:19;;;;;;;0.35;0.30;;;15.10;71.20;;;;;;4977953;28;20046;-82
2023/12/21 04:51:45;;;;;;;0.20;0.20;;;15.10;71.20;;;;;;4949119;28;20141;-82
2023/12/21 04:54:11;;;;;;;0.45;0.40;;;15.10;71.10;;;;;;4974726;28;20046;-82
2023/12/21 04:56:41;;;;;;;0.50;0.22;;;15.10;71.20;;;;;;4990878;28;20543;-81
2023/12/21 04:59:07;;;;;;;0.20;0.20;;;15.10;71.00;;;;;;4989133;28;20048;-81
2023/12/21 05:01:32;;;;;;;0.40;0.30;;;15.10;71.10;;;;;;4995905;28;20046;-81
2023/12/21 05:03:58;;;;;;;0.50;0.40;;;15.10;71.10;;;;;;4976023;28;20048;-82
2023/12/21 05:06:24;;;;;;;0.30;0.30;;;15.10;71.30;;;;;;4993520;28;20118;-81
2023/12/21 05:08:51;;;;;;;0.57;0.30;;;15.10;71.20;;;;;;4981669;28;20058;-82
2023/12/21 05:11:17;;;;;;;0.40;0.30;;;15.10;71.30;;;;;;4986054;28;20069;-82
2023/12/21 05:13:43;;;;;;;0.35;0.20;;;15.10;71.30;;;;;;4994363;28;20048;-81
2023/12/21 05:16:08;;;;;;;0.30;0.30;;;15.10;71.30;;;;;;4997215;28;20033;-81
2023/12/21 05:18:36;;;;;;;0.40;0.28;;;15.10;71.20;;;;;;5001073;28;20083;-81
2023/12/21 05:21:01;;;;;;;0.50;0.30;;;15.00;71.40;;;;;;4998758;28;20128;-81
2023/12/21 05:23:27;;;;;;;0.25;0.22;;;15.00;71.30;;;;;;4961488;28;20176;-82
2023/12/21 05:25:53;;;;;;;0.30;0.22;;;15.00;71.40;;;;;;4988574;28;20414;-83
2023/12/21 05:28:18;;;;;;;0.40;0.40;;;15.00;71.30;;;;;;4982599;28;20049;-82
2023/12/21 05:30:44;;;;;;;0.30;0.22;;;15.10;71.30;;;;;;4996748;28;20537;-82
2023/12/21 05:33:09;;;;;;;0.38;0.20;;;15.10;71.10;;;;;;4981178;28;20103;-81
2023/12/21 05:35:35;;;;;;;0.90;0.30;;;15.10;71.10;;;;;;4995626;28;20041;-82
2023/12/21 05:38:01;;;;;;;0.20;0.20;;;15.10;71.00;;;;;;4994450;28;20071;-82
2023/12/21 05:40:26;;;;;;;0.30;0.20;;;15.10;70.90;;;;;;4977924;28;20136;-81
2023/12/21 05:42:52;;;;;;;0.20;0.20;;;15.10;71.10;;;;;;4991286;28;20041;-81
2023/12/21 05:45:17;;;;;;;0.20;0.20;;;15.10;71.10;;;;;;4982201;28;20046;-82
2023/12/21 05:47:43;;;;;;;0.25;0.20;;;15.10;71.30;;;;;;4993327;28;20050;-83
2023/12/21 05:50:10;;;;;;;0.35;0.28;;;15.20;71.20;;;;;;4997782;28;20049;-81
2023/12/21 05:52:36;;;;;;;0.30;0.20;;;15.10;71.10;;;;;;4997480;28;20042;-80
2023/12/21 05:55:02;;;;;;;0.28;0.20;;;15.10;71.30;;;;;;4989742;28;20043;-81
2023/12/21 05:57:27;;;;;;;0.40;0.30;;;15.20;71.30;;;;;;5011400;28;20053;-83
2023/12/21 05:59:53;;;;;;;0.60;0.30;;;15.10;71.30;;;;;;4985791;28;20026;-83
2023/12/21 06:02:19;;;;;;;0.30;0.30;;;15.00;71.30;;;;;;5000304;28;20095;-82
2023/12/21 06:04:44;;;;;;;0.20;0.20;;;15.00;71.70;;;;;;4986310;28;20041;-85
2023/12/21 06:07:10;;;;;;;0.20;0.20;;;15.00;71.60;;;;;;4982622;28;20103;-81
2023/12/21 06:09:35;;;;;;;0.28;0.28;;;15.00;71.70;;;;;;4650628;28;10000585;-83
2023/12/21 06:12:01;;;;;;;0.20;0.17;;;15.10;71.50;;;;;;4998139;28;20049;-80
2023/12/21 06:14:27;;;;;;;0.20;0.20;;;15.10;71.80;;;;;;4988681;28;20116;-80
2023/12/21 06:16:52;;;;;;;0.30;0.30;;;15.10;72.00;;;;;;4992773;28;20061;-80
2023/12/21 06:19:18;;;;;;;0.30;0.30;;;15.10;72.00;;;;;;4991341;28;20048;-81
2023/12/21 06:21:43;;;;;;;0.28;0.28;;;15.00;72.00;;;;;;4995250;28;20057;-82
2023/12/21 06:24:09;;;;;;;0.82;0.20;;;15.10;71.90;;;;;;4997054;28;20128;-81
2023/12/21 06:26:41;;;;;;;0.22;0.20;;;15.10;71.80;;;;;;4973608;28;20056;-81
2023/12/21 06:29:07;;;;;;;0.30;0.30;;;15.10;71.70;;;;;;5020216;28;20054;-82
2023/12/21 06:31:32;;;;;;;0.20;0.20;;;15.10;71.90;;;;;;4990241;28;20556;-81
2023/12/21 06:33:58;;;;;;;0.30;0.30;;;15.10;71.70;;;;;;4988527;28;20630;-81
2023/12/21 06:36:24;;;;;;;0.25;0.20;;;15.00;71.60;;;;;;4976595;28;20038;-82
2023/12/21 06:38:49;;;;;;;0.13;0.13;;;15.00;71.70;;;;;;4973905;28;20487;-81
2023/12/21 06:41:15;;;;;;;0.20;0.20;;;15.00;71.70;;;;;;4990090;28;20451;-81
2023/12/21 06:43:40;;;;;;;0.45;0.32;;;15.00;71.70;;;;;;4973303;28;20554;-81
2023/12/21 06:46:15;;;;;;;0.63;0.30;;;15.10;71.70;;;;;;4982776;28;20038;-81
2023/12/21 06:48:41;;;;;;;0.25;0.13;;;15.00;71.70;;;;;;4977546;28;20148;-81
2023/12/21 06:51:07;;;;;;;0.20;0.10;;;15.00;71.50;;;;;;4987019;28;20520;-81
2023/12/21 06:53:33;;;;;;;0.43;0.30;;;15.00;71.40;;;;;;4977677;28;20037;-81
2023/12/21 06:55:58;;;;;;;0.20;0.13;;;15.10;71.50;;;;;;4985066;28;20479;-81
2023/12/21 06:58:25;;;;;;;0.30;0.20;;;15.10;71.60;;;;;;4987618;28;20057;-81
2023/12/21 07:00:51;;;;;;;0.30;0.30;;;15.10;71.40;;;;;;4984848;28;20088;-81
2023/12/21 07:03:17;;;;;;;0.20;0.10;;;15.10;71.20;;;;;;4980084;28;20042;-81
2023/12/21 07:05:42;;;;;;;0.30;0.17;;;15.10;71.30;;;;;;4968007;28;20056;-81
2023/12/21 07:08:08;;;;;;;0.30;0.20;;;15.10;71.10;;;;;;4963654;28;20080;-82
2023/12/21 07:10:33;;;;;;;0.35;0.25;;;15.10;71.30;;;;;;4987952;28;20046;-81
2023/12/21 07:12:59;;;;;;;1.38;0.17;;;15.10;71.20;;;;;;5003209;28;20089;-81
2023/12/21 07:15:24;;;;;;;0.00;0.00;;;15.10;71.20;;;;;;4970940;28;20570;-81
2023/12/21 07:17:50;;;;;;;0.30;0.13;;;15.20;71.40;;;;;;4975680;28;20303;-81
2023/12/21 07:20:20;;;;;;;0.10;0.10;;;15.20;71.20;;;;;;4987445;28;20676;-80
2023/12/21 07:22:45;;;;;;;0.20;0.20;;;15.20;71.20;;;;;;4994704;28;20494;-81
2023/12/21 07:25:11;;;;;;;0.13;0.10;;;15.20;71.60;;;;;;4987876;28;20042;-80
2023/12/21 07:27:37;;;;;;;0.20;0.20;;;15.20;71.60;;;;;;4975859;28;20129;-80
2023/12/21 07:30:04;;;;;;;0.20;0.20;;;15.20;71.70;;;;;;4974585;28;20123;-81
2023/12/21 07:32:29;;;;;;;0.22;0.20;;;15.10;71.60;;;;;;4971515;28;20061;-82
2023/12/21 07:34:55;;;;;;;0.17;0.17;;;15.10;71.50;;;;;;4977465;28;20268;-82
2023/12/21 07:37:22;;;;;;;0.68;0.60;;;15.20;71.60;;;;;;4974186;28;20046;-81
2023/12/21 07:39:47;;;;;;;0.43;0.43;;;15.10;71.50;;;;;;4991932;28;20054;-80
2023/12/21 07:42:13;;;;;;;0.40;0.30;;;15.20;71.50;;;;;;4960057;28;20045;-81
2023/12/21 07:44:38;;;;;;;0.40;0.10;;;15.20;71.40;;;;;;4968531;28;20039;-81
2023/12/21 07:47:04;;;;;;;0.73;0.10;;;15.20;71.70;;;;;;4974697;28;20062;-81
2023/12/21 07:49:30;;;;;;;0.20;0.20;;;15.10;71.70;;;;;;4973601;28;20414;-81
2023/12/21 07:51:55;;;;;;;0.90;0.10;;;15.20;71.80;;;;;;4996843;28;20076;-81
2023/12/21 07:54:21;;;;;;;0.20;0.20;;;15.20;71.40;;;;;;5005358;28;20587;-81
2023/12/21 07:56:47;;;;;;;0.90;0.30;;;15.10;71.70;;;;;;4945481;28;20037;-81
2023/12/21 07:59:13;;;;;;;0.35;0.30;;;15.20;71.60;;;;;;4973532;28;20543;-81
2023/12/21 08:01:39;;;;;;;2.15;0.10;;;15.20;71.50;;;;;;4964899;28;20043;-81
2023/12/21 08:04:07;;;;;;;0.50;0.20;;;15.20;71.50;;;;;;4987229;28;20401;-82
2023/12/21 08:06:32;;;;;;;0.50;0.10;;;15.20;71.50;;;;;;4986776;28;20064;-82
2023/12/21 08:08:58;;;;;;;1.23;0.25;;;15.20;71.60;;;;;;4988910;28;20052;-82
2023/12/21 08:11:23;;;;;;;0.73;0.30;;;15.10;71.50;;;;;;4977270;28;20132;-81
2023/12/21 08:13:50;;;;;;;0.30;0.15;;;15.20;71.60;;;;;;4997540;28;20042;-81
2023/12/21 08:16:17;;;;;;;1.55;0.15;;;15.10;71.60;;;;;;4996644;28;20140;-82
2023/12/21 08:18:44;;;;;;;0.60;0.20;;;15.20;71.40;;;;;;4990392;28;20050;-81
2023/12/21 08:21:10;;;;;;;0.20;0.17;;;15.20;72.30;;;;;;5018305;28;20049;-81
2023/12/21 08:23:35;;;;;;;0.80;0.10;;;15.20;71.50;;;;;;4979020;28;20542;-81
2023/12/21 08:26:03;;;;;;;0.10;0.10;;;15.20;71.40;;;;;;4979946;28;20049;-81
2023/12/21 08:28:30;;;;;;;0.10;0.10;;;15.20;71.60;;;;;;4982526;28;20060;-81
2023/12/21 08:30:56;;;;;;;0.20;0.10;;;15.20;71.40;;;;;;4957960;28;20496;-82
2023/12/21 08:33:21;;;;;;;0.55;0.10;;;15.20;71.10;;;;;;4998767;28;20136;-81
2023/12/21 08:35:47;;;;;;;0.30;0.10;;;15.20;71.30;;;;;;4991516;28;20056;-81
2023/12/21 08:38:13;;;;;;;0.43;0.10;;;15.10;71.30;;;;;;4975300;28;20041;-82
2023/12/21 08:40:38;;;;;;;0.20;0.10;;;15.20;71.30;;;;;;4972948;28;20081;-81
2023/12/21 08:43:04;;;;;;;0.20;0.20;;;15.10;71.30;;;;;;4985996;28;20034;-81
2023/12/21 08:45:30;;;;;;;0.20;0.10;;;15.10;71.30;;;;;;4973278;28;20078;-82
2023/12/21 08:47:56;;;;;;;0.22;0.20;;;15.20;71.50;;;;;;4999522;28;20038;-81
2023/12/21 08:50:21;;;;;;;0.20;0.15;;;15.20;71.40;;;;;;4981770;28;20141;-82
2023/12/21 08:52:47;;;;;;;0.30;0.20;;;15.20;71.30;;;;;;4951225;28;20596;-81
2023/12/21 08:55:13;;;;;;;0.13;0.10;;;15.20;71.40;;;;;;5003939;28;20050;-82
2023/12/21 08:57:39;;;;;;;0.10;0.10;;;15.10;72.10;;;;;;4974680;28;20052;-81
2023/12/21 09:00:06;;;;;;;0.10;0.10;;;15.20;71.50;;;;;;5000500;28;20045;-81
2023/12/21 09:02:35;;;;;;;0.20;0.10;;;15.20;71.30;;;;;;4975634;28;20061;-81
2023/12/21 09:05:02;;;;;;;0.15;0.10;;;15.20;71.30;;;;;;4980050;28;20499;-82
2023/12/21 09:07:27;;;;;;;0.10;0.10;;;15.20;71.30;;;;;;4991433;28;20507;-81
2023/12/21 09:09:53;;;;;;;0.00;0.00;;;15.20;71.20;;;;;;5002739;28;20050;-81
2023/12/21 09:12:19;;;;;;;0.47;0.20;;;15.20;71.50;;;;;;4981811;28;20136;-82
2023/12/21 09:14:45;;;;;;;0.10;0.10;;;15.20;71.50;;;;;;5005564;28;20492;-81
2023/12/21 09:17:11;;;;;;;0.20;0.10;;;15.20;71.40;;;;;;4980135;28;20111;-81
2023/12/21 09:19:36;;;;;;;0.20;0.10;;;15.20;71.50;;;;;;5009139;28;20048;-82
2023/12/21 09:22:02;;;;;;;0.73;0.10;;;15.20;71.30;;;;;;4982732;28;20133;-81
2023/12/21 09:24:27;;;;;;;0.13;0.08;;;15.20;71.30;;;;;;4974035;28;20431;-81
2023/12/21 09:26:53;;;;;;;0.20;0.20;;;15.20;71.30;;;;;;4977244;28;20416;-82
2023/12/21 09:29:19;;;;;;;0.10;0.10;;;15.20;71.50;;;;;;4966186;28;20100;-82
2023/12/21 09:31:44;;;;;;;0.28;0.10;;;15.20;71.50;;;;;;4986161;28;20125;-81
2023/12/21 09:34:11;;;;;;;0.30;0.20;;;15.20;71.50;;;;;;4994896;28;20064;-81
2023/12/21 09:36:36;;;;;;;1.08;0.20;;;15.20;71.60;;;;;;4957170;28;20048;-81
2023/12/21 09:39:03;;;;;;;0.20;0.10;;;15.20;71.50;;;;;;4987416;28;20045;-81
2023/12/21 09:41:28;;;;;;;0.35;0.10;;;15.20;72.30;;;;;;4993461;28;20041;-82
2023/12/21 09:43:54;;;;;;;0.10;0.10;;;15.10;71.50;;;;;;4995704;28;20104;-81
2023/12/21 09:46:21;;;;;;;0.05;0.05;;;15.10;71.50;;;;;;4992613;28;20443;-82
2023/12/21 09:48:47;;;;;;;0.17;0.10;;;15.10;71.30;;;;;;4990065;28;20044;-82
2023/12/21 09:51:14;;;;;;;0.35;0.15;;;15.10;71.50;;;;;;4990403;28;20030;-81
2023/12/21 09:53:39;;;;;;;0.20;0.15;;;15.10;71.50;;;;;;4977338;28;20121;-82
2023/12/21 09:56:06;;;;;;;0.47;0.10;;;15.20;71.50;;;;;;4981259;28;20348;-81
2023/12/21 09:58:31;;;;;;;0.10;0.10;;;15.10;71.30;;;;;;4988652;28;20050;-82
2023/12/21 10:00:57;;;;;;;0.10;0.00;;;15.20;71.60;;;;;;4947727;28;20085;-81
2023/12/21 10:03:23;;;;;;;0.40;0.10;;;15.10;71.50;;;;;;5008960;28;20038;-82
2023/12/21 10:05:49;;;;;;;0.38;0.10;;;15.20;71.30;;;;;;4981505;28;20044;-81
2023/12/21 10:08:15;;;;;;;0.43;0.13;;;15.10;71.40;;;;;;5003728;28;20039;-81
2023/12/21 10:10:40;;;;;;;0.20;0.08;;;15.20;71.50;;;;;;4987754;28;20041;-81
2023/12/21 10:13:06;;;;;;;0.20;0.20;;;15.10;71.30;;;;;;4996755;28;20048;-81
2023/12/21 10:15:35;;;;;;;0.22;0.10;;;15.10;71.50;;;;;;4974253;28;20037;-81
2023/12/21 10:18:00;;;;;;;0.13;0.10;;;15.10;71.50;;;;;;4972348;28;20035;-81
2023/12/21 10:20:26;;;;;;;0.10;0.10;;;15.20;71.50;;;;;;4985693;28;20045;-82
2023/12/21 10:22:52;;;;;;;0.60;0.20;;;15.20;71.30;;;;;;4964197;28;20050;-81
2023/12/21 10:25:18;;;;;;;0.10;0.10;;;15.10;71.20;;;;;;4975318;28;20050;-82
2023/12/21 10:27:53;;;;;;;0.20;0.05;;;15.20;71.40;;;;;;4984600;28;20054;-81
2023/12/21 10:30:22;;;;;;;0.47;0.20;;;15.20;71.30;;;;;;5007331;28;20081;-82
2023/12/21 10:32:53;;;;;;;0.20;0.10;;;15.20;71.40;;;;;;4979533;28;20057;-81
2023/12/21 10:35:19;;;;;;;0.20;0.20;;;15.20;71.20;;;;;;4981755;28;20121;-83
2023/12/21 10:37:46;;;;;;;0.20;0.20;;;15.20;71.20;;;;;;4976914;28;20042;-81
2023/12/21 10:40:15;;;;;;;0.20;0.20;;;15.20;71.10;;;;;;4979169;28;20047;-81
2023/12/21 10:42:48;;;;;;;0.20;0.20;;;15.20;71.20;;;;;;4978279;28;20038;-81
2023/12/21 10:45:14;;;;;;;0.10;0.10;;;15.20;70.90;;;;;;4978104;28;20558;-81
2023/12/21 10:47:49;;;;;;;0.20;0.20;;;15.20;71.00;;;;;;4982065;28;20522;-81
2023/12/21 10:50:15;;;;;;;0.22;0.13;;;15.20;71.00;;;;;;4984300;28;20180;-81
2023/12/21 10:52:40;;;;;;;0.77;0.30;;;15.20;71.20;;;;;;4991884;28;20495;-81
2023/12/21 10:55:08;;;;;;;0.47;0.13;;;15.20;71.00;;;;;;4990566;28;20538;-81
2023/12/21 10:57:33;;;;;;;0.35;0.30;;;15.30;70.90;;;;;;4971441;28;20042;-82
2023/12/21 10:59:59;;;;;;;0.35;0.20;;;15.20;70.80;;;;;;4960201;28;20043;-81
2023/12/21 11:02:24;;;;;;;0.88;0.20;;;15.20;70.80;;;;;;4979227;28;20034;-81
2023/12/21 11:04:50;;;;;;;0.60;0.30;;;15.20;71.00;;;;;;4998665;28;20056;-81
2023/12/21 11:07:15;;;;;;;0.30;0.20;;;15.20;70.90;;;;;;5000479;28;20045;-81
2023/12/21 11:09:41;;;;;;;0.45;0.22;;;15.20;70.80;;;;;;4977837;28;20550;-81
2023/12/21 11:12:08;;;;;;;0.28;0.25;;;15.20;70.80;;;;;;4959443;28;20054;-81
2023/12/21 11:14:34;;;;;;;0.40;0.40;;;15.20;70.90;;;;;;4985843;28;20065;-90
2023/12/21 11:17:00;;;;;;;0.65;0.17;;;15.20;70.80;;;;;;4973149;28;20147;-81
2023/12/21 11:19:34;;;;;;;0.75;0.30;;;15.30;70.80;;;;;;4978620;28;20746;-82
2023/12/21 11:22:00;;;;;;;0.55;0.25;;;15.20;70.70;;;;;;5008332;28;20196;-82
2023/12/21 11:24:26;;;;;;;0.63;0.30;;;15.20;70.80;;;;;;4979000;28;20133;-81
2023/12/21 11:26:51;;;;;;;0.20;0.10;;;15.30;70.60;;;;;;4979340;28;20099;-81
2023/12/21 11:29:26;;;;;;;0.77;0.40;;;15.20;70.80;;;;;;4996326;28;20570;-81
2023/12/21 11:31:52;;;;;;;0.40;0.28;;;15.20;70.80;;;;;;5003770;28;20046;-81
2023/12/21 11:34:19;;;;;;;0.38;0.22;;;15.30;70.70;;;;;;4997645;28;20049;-81
2023/12/21 11:36:46;;;;;;;1.63;0.40;;;15.30;70.60;;;;;;4987194;28;20053;-81
2023/12/21 11:39:15;;;;;;;0.50;0.20;;;15.30;70.60;;;;;;4995674;28;20062;-81
2023/12/21 11:41:56;;;;;;;2.53;0.30;;;15.20;70.70;;;;;;4978334;28;20042;-81
2023/12/21 11:44:21;;;;;;;0.35;0.30;;;15.20;70.80;;;;;;4976039;28;20120;-83
2023/12/21 11:46:47;;;;;;;0.60;0.30;;;15.20;70.70;;;;;;5006768;28;21943;-81
2023/12/21 11:49:25;;;;;;;0.80;0.40;;;15.20;71.10;;;;;;4961441;28;20050;-81
2023/12/21 11:51:51;;;;;;;1.00;0.40;;;15.20;70.70;;;;;;4983424;28;20418;-81
2023/12/21 11:54:23;;;;;;;0.93;0.40;;;15.20;70.60;;;;;;4973622;28;20401;-81
2023/12/21 11:57:08;;;;;;;0.50;0.35;;;15.20;70.50;;;;;;4993370;28;20054;-81
2023/12/21 11:59:33;;;;;;;0.70;0.40;;;15.20;70.60;;;;;;4979694;28;20038;-81
2023/12/21 12:01:59;;;;;;;1.85;0.40;;;15.20;70.70;;;;;;4977021;28;20074;-81
2023/12/21 12:04:25;;;;;;;0.80;0.40;;;15.20;70.50;;;;;;5015891;28;20053;-82
2023/12/21 12:06:50;;;;;;;0.40;0.20;;;15.20;70.80;;;;;;4980053;28;20113;-81
2023/12/21 12:09:17;;;;;;;0.50;0.47;;;15.20;70.70;;;;;;4969797;28;20046;-81
2023/12/21 12:11:42;;;;;;;0.65;0.40;;;15.20;70.60;;;;;;4974291;28;20049;-81
2023/12/21 12:14:11;;;;;;;1.10;0.60;;;15.20;70.70;;;;;;4987804;28;20030;-81
2023/12/21 12:16:37;;;;;;;1.65;0.55;;;15.20;70.50;;;;;;4989851;28;20480;-81
2023/12/21 12:19:02;;;;;;;1.15;0.80;;;15.20;70.50;;;;;;4973573;28;20566;-82
2023/12/21 12:21:29;;;;;;;1.48;0.60;;;15.20;71.40;;;;;;4991735;28;20049;-82
2023/12/21 12:23:54;;;;;;;1.48;0.57;;;15.20;71.60;;;;;;4996923;28;20033;-81
2023/12/21 12:26:20;;;;;;;1.60;0.60;;;15.20;71.30;;;;;;4980133;28;20111;-81
2023/12/21 12:28:48;;;;;;;2.40;0.70;;;15.20;72.60;;;;;;4990148;28;20558;-82
2023/12/21 12:31:14;;;;;;;2.17;1.00;;;15.30;74.60;;;;;;4982236;28;20045;-81
2023/12/21 12:33:39;;;;;;;0.98;0.70;;;15.30;75.40;;;;;;4989160;28;20040;-82
2023/12/21 12:36:07;;;;;;;2.92;0.70;;;15.20;74.80;;;;;;4980194;28;20075;-82
2023/12/21 12:38:32;;;;;;;0.93;0.55;;;15.10;74.30;;;;;;4972801;28;20099;-82